sensor_id;sensor_type;location;lat;lon;timestamp;pressure;altitude;pressure_sealevel;temperature;humidity
30516;BME280;17297;54.022;10.760;2023-08-01T00:00:59;99653.19;;;19.34;77.03
30516;BME280;17297;54.022;10.760;2023-08-01T00:03:25;99652.38;;;19.34;76.75
30516;BME280;17297;54.022;10.760;2023-08-01T00:05:50;99647.72;;;19.34;76.89
30516;BME280;17297;54.022;10.760;2023-08-01T00:08:15;99646.66;;;19.35;76.80
30516;BME280;17297;54.022;10.760;2023-08-01T00:10:41;99644.75;;;19.36;76.98
30516;BME280;17297;54.022;10.760;2023-08-01T00:13:07;99635.44;;;19.37;77.05
30516;BME280;17297;54.022;10.760;2023-08-01T00:15:33;99637.09;;;19.38;77.04
30516;BME280;17297;54.022;10.760;2023-08-01T00:17:58;99645.00;;;19.39;76.94
30516;BME280;17297;54.022;10.760;2023-08-01T00:20:24;99633.28;;;19.39;76.79
30516;BME280;17297;54.022;10.760;2023-08-01T00:22:49;99625.91;;;19.39;76.98
30516;BME280;17297;54.022;10.760;2023-08-01T00:25:14;99616.09;;;19.38;76.92
30516;BME280;17297;54.022;10.760;2023-08-01T00:27:40;99619.63;;;19.39;76.86
30516;BME280;17297;54.022;10.760;2023-08-01T00:30:06;99616.09;;;19.38;76.81
30516;BME280;17297;54.022;10.760;2023-08-01T00:32:31;99621.25;;;19.40;77.02
30516;BME280;17297;54.022;10.760;2023-08-01T00:34:57;99604.63;;;19.42;77.11
30516;BME280;17297;54.022;10.760;2023-08-01T00:37:22;99598.38;;;19.41;76.79
30516;BME280;17297;54.022;10.760;2023-08-01T00:39:47;99588.28;;;19.42;76.83
30516;BME280;17297;54.022;10.760;2023-08-01T00:42:13;99582.81;;;19.42;76.86
30516;BME280;17297;54.022;10.760;2023-08-01T00:44:38;99568.38;;;19.41;76.85
30516;BME280;17297;54.022;10.760;2023-08-01T00:47:04;99568.66;;;19.39;76.79
30516;BME280;17297;54.022;10.760;2023-08-01T00:49:29;99576.00;;;19.39;76.77
30516;BME280;17297;54.022;10.760;2023-08-01T00:51:56;99572.19;;;19.40;76.93
30516;BME280;17297;54.022;10.760;2023-08-01T00:54:22;99578.75;;;19.39;76.90
30516;BME280;17297;54.022;10.760;2023-08-01T00:56:47;99561.28;;;19.40;76.66
30516;BME280;17297;54.022;10.760;2023-08-01T00:59:13;99553.09;;;19.40;76.98
30516;BME280;17297;54.022;10.760;2023-08-01T01:01:38;99547.38;;;19.42;76.74
30516;BME280;17297;54.022;10.760;2023-08-01T01:04:04;99541.38;;;19.39;76.79
30516;BME280;17297;54.022;10.760;2023-08-01T01:06:47;99544.09;;;19.39;76.71
30516;BME280;17297;54.022;10.760;2023-08-01T01:09:16;99537.84;;;19.39;76.57
30516;BME280;17297;54.022;10.760;2023-08-01T01:11:42;99535.13;;;19.39;76.69
30516;BME280;17297;54.022;10.760;2023-08-01T01:14:07;99526.63;;;19.41;76.63
30516;BME280;17297;54.022;10.760;2023-08-01T01:16:33;99526.94;;;19.39;76.68
30516;BME280;17297;54.022;10.760;2023-08-01T01:18:59;99520.38;;;19.40;76.92
30516;BME280;17297;54.022;10.760;2023-08-01T01:21:24;99507.84;;;19.39;76.59
30516;BME280;17297;54.022;10.760;2023-08-01T01:23:50;99508.66;;;19.39;76.51
30516;BME280;17297;54.022;10.760;2023-08-01T01:26:17;99507.03;;;19.38;76.49
30516;BME280;17297;54.022;10.760;2023-08-01T01:28:48;99507.28;;;19.37;76.89
30516;BME280;17297;54.022;10.760;2023-08-01T01:31:15;99504.56;;;19.37;76.52
30516;BME280;17297;54.022;10.760;2023-08-01T01:33:41;99496.69;;;19.35;76.84
30516;BME280;17297;54.022;10.760;2023-08-01T01:36:06;99503.75;;;19.36;76.79
30516;BME280;17297;54.022;10.760;2023-08-01T01:38:34;99499.94;;;19.37;76.93
30516;BME280;17297;54.022;10.760;2023-08-01T01:40:59;99503.75;;;19.36;76.77
30516;BME280;17297;54.022;10.760;2023-08-01T01:43:25;99495.59;;;19.36;76.59
30516;BME280;17297;54.022;10.760;2023-08-01T01:45:50;99495.59;;;19.36;76.77
30516;BME280;17297;54.022;10.760;2023-08-01T01:48:16;99491.75;;;19.37;76.50
30516;BME280;17297;54.022;10.760;2023-08-01T01:50:42;99474.88;;;19.35;76.52
30516;BME280;17297;54.022;10.760;2023-08-01T01:53:07;99477.59;;;19.35;76.67
30516;BME280;17297;54.022;10.760;2023-08-01T01:55:33;99459.31;;;19.36;76.76
30516;BME280;17297;54.022;10.760;2023-08-01T01:58:00;99461.25;;;19.35;76.62
30516;BME280;17297;54.022;10.760;2023-08-01T02:00:25;99461.25;;;19.35;76.46
30516;BME280;17297;54.022;10.760;2023-08-01T02:02:51;99463.16;;;19.35;76.75
30516;BME280;17297;54.022;10.760;2023-08-01T02:05:16;99463.97;;;19.35;76.72
30516;BME280;17297;54.022;10.760;2023-08-01T02:07:41;99459.88;;;19.33;76.53
30516;BME280;17297;54.022;10.760;2023-08-01T02:10:07;99461.00;;;19.32;76.61
30516;BME280;17297;54.022;10.760;2023-08-01T02:12:33;99468.34;;;19.31;76.70
30516;BME280;17297;54.022;10.760;2023-08-01T02:15:00;99465.09;;;19.29;76.57
30516;BME280;17297;54.022;10.760;2023-08-01T02:17:26;99456.91;;;19.29;76.44
30516;BME280;17297;54.022;10.760;2023-08-01T02:19:51;99449.00;;;19.28;76.48
30516;BME280;17297;54.022;10.760;2023-08-01T02:22:17;99448.50;;;19.26;76.43
30516;BME280;17297;54.022;10.760;2023-08-01T02:24:42;99444.66;;;19.27;76.28
30516;BME280;17297;54.022;10.760;2023-08-01T02:27:08;99441.38;;;19.25;76.55
30516;BME280;17297;54.022;10.760;2023-08-01T02:29:33;99438.66;;;19.25;76.46
30516;BME280;17297;54.022;10.760;2023-08-01T02:31:59;99432.69;;;19.23;76.28
30516;BME280;17297;54.022;10.760;2023-08-01T02:34:24;99436.50;;;19.22;76.27
30516;BME280;17297;54.022;10.760;2023-08-01T02:36:50;99438.41;;;19.21;76.19
30516;BME280;17297;54.022;10.760;2023-08-01T02:39:15;99434.06;;;19.20;76.20
30516;BME280;17297;54.022;10.760;2023-08-01T02:41:40;99427.00;;;19.19;76.47
30516;BME280;17297;54.022;10.760;2023-08-01T02:44:06;99419.91;;;19.18;76.33
30516;BME280;17297;54.022;10.760;2023-08-01T02:46:31;99423.72;;;19.17;76.37
30516;BME280;17297;54.022;10.760;2023-08-01T02:48:56;99421.00;;;19.17;76.39
30516;BME280;17297;54.022;10.760;2023-08-01T02:51:22;99417.47;;;19.17;76.21
30516;BME280;17297;54.022;10.760;2023-08-01T02:53:47;99417.47;;;19.17;76.21
30516;BME280;17297;54.022;10.760;2023-08-01T02:56:12;99424.84;;;19.16;76.26
30516;BME280;17297;54.022;10.760;2023-08-01T02:58:38;99419.38;;;19.16;76.42
30516;BME280;17297;54.022;10.760;2023-08-01T03:01:07;99420.47;;;19.15;76.29
30516;BME280;17297;54.022;10.760;2023-08-01T03:03:34;99424.00;;;19.15;76.31
30516;BME280;17297;54.022;10.760;2023-08-01T03:06:01;99421.56;;;19.14;76.35
30516;BME280;17297;54.022;10.760;2023-08-01T03:08:26;99427.03;;;19.14;76.37
30516;BME280;17297;54.022;10.760;2023-08-01T03:10:53;99419.66;;;19.14;76.46
30516;BME280;17297;54.022;10.760;2023-08-01T03:13:19;99412.59;;;19.13;76.33
30516;BME280;17297;54.022;10.760;2023-08-01T03:15:44;99410.66;;;19.14;76.29
30516;BME280;17297;54.022;10.760;2023-08-01T03:18:09;99415.31;;;19.13;76.11
30516;BME280;17297;54.022;10.760;2023-08-01T03:20:35;99412.28;;;19.15;76.12
30516;BME280;17297;54.022;10.760;2023-08-01T03:23:00;99409.84;;;19.13;76.47
30516;BME280;17297;54.022;10.760;2023-08-01T03:25:25;99406.03;;;19.14;76.36
30516;BME280;17297;54.022;10.760;2023-08-01T03:27:51;99398.94;;;19.13;76.29
30516;BME280;17297;54.022;10.760;2023-08-01T03:30:16;99404.41;;;19.13;76.43
30516;BME280;17297;54.022;10.760;2023-08-01T03:32:41;99400.56;;;19.14;76.34
30516;BME280;17297;54.022;10.760;2023-08-01T03:35:08;99403.59;;;19.13;76.13
30516;BME280;17297;54.022;10.760;2023-08-01T03:37:33;99398.94;;;19.13;76.24
30516;BME280;17297;54.022;10.760;2023-08-01T03:39:59;99401.69;;;19.13;76.26
30516;BME280;17297;54.022;10.760;2023-08-01T03:42:24;99398.16;;;19.13;76.33
30516;BME280;17297;54.022;10.760;2023-08-01T03:44:49;99397.84;;;19.14;76.38
30516;BME280;17297;54.022;10.760;2023-08-01T03:47:15;99387.25;;;19.13;76.54
30516;BME280;17297;54.022;10.760;2023-08-01T03:49:40;99381.78;;;19.13;76.48
30516;BME280;17297;54.022;10.760;2023-08-01T03:52:06;99380.13;;;19.12;76.38
30516;BME280;17297;54.022;10.760;2023-08-01T03:54:32;99382.06;;;19.11;76.13
30516;BME280;17297;54.022;10.760;2023-08-01T03:56:57;99385.59;;;19.12;76.29
30516;BME280;17297;54.022;10.760;2023-08-01T03:59:22;99376.34;;;19.13;76.33
30516;BME280;17297;54.022;10.760;2023-08-01T04:01:48;99376.34;;;19.13;76.49
30516;BME280;17297;54.022;10.760;2023-08-01T04:04:13;99377.16;;;19.13;76.52
30516;BME280;17297;54.022;10.760;2023-08-01T04:06:39;99368.16;;;19.13;76.48
30516;BME280;17297;54.022;10.760;2023-08-01T04:09:04;99369.78;;;19.14;76.46
30516;BME280;17297;54.022;10.760;2023-08-01T04:11:32;99355.34;;;19.13;76.31
30516;BME280;17297;54.022;10.760;2023-08-01T04:13:57;99364.88;;;19.16;76.41
30516;BME280;17297;54.022;10.760;2023-08-01T04:16:22;99366.75;;;19.15;76.37
30516;BME280;17297;54.022;10.760;2023-08-01T04:18:48;99361.03;;;19.17;76.35
30516;BME280;17297;54.022;10.760;2023-08-01T04:21:14;99358.31;;;19.17;76.53
30516;BME280;17297;54.022;10.760;2023-08-01T04:23:41;99363.47;;;19.19;76.65
30516;BME280;17297;54.022;10.760;2023-08-01T04:26:07;99362.38;;;19.20;76.52
30516;BME280;17297;54.022;10.760;2023-08-01T04:28:33;99364.31;;;19.19;76.44
30516;BME280;17297;54.022;10.760;2023-08-01T04:30:59;99365.91;;;19.20;76.50
30516;BME280;17297;54.022;10.760;2023-08-01T04:33:24;99361.28;;;19.21;76.69
30516;BME280;17297;54.022;10.760;2023-08-01T04:35:49;99348.47;;;19.21;76.51
30516;BME280;17297;54.022;10.760;2023-08-01T04:38:16;99352.84;;;19.22;76.32
30516;BME280;17297;54.022;10.760;2023-08-01T04:40:41;99344.66;;;19.22;76.41
30516;BME280;17297;54.022;10.760;2023-08-01T04:43:06;99348.19;;;19.23;76.48
30516;BME280;17297;54.022;10.760;2023-08-01T04:45:32;99347.91;;;19.24;76.32
30516;BME280;17297;54.022;10.760;2023-08-01T04:47:57;99346.81;;;19.25;76.71
30516;BME280;17297;54.022;10.760;2023-08-01T04:50:22;99351.44;;;19.25;76.32
30516;BME280;17297;54.022;10.760;2023-08-01T04:52:49;99344.09;;;19.25;76.67
30516;BME280;17297;54.022;10.760;2023-08-01T04:55:14;99346.81;;;19.25;76.67
30516;BME280;17297;54.022;10.760;2023-08-01T04:57:39;99349.53;;;19.25;76.59
30516;BME280;17297;54.022;10.760;2023-08-01T05:00:05;99346.50;;;19.27;76.33
30516;BME280;17297;54.022;10.760;2023-08-01T05:02:31;99344.91;;;19.26;76.45
30516;BME280;17297;54.022;10.760;2023-08-01T05:04:56;99342.69;;;19.28;76.52
30516;BME280;17297;54.022;10.760;2023-08-01T05:07:21;99348.97;;;19.28;76.72
30516;BME280;17297;54.022;10.760;2023-08-01T05:09:47;99341.59;;;19.29;76.75
30516;BME280;17297;54.022;10.760;2023-08-01T05:12:12;99337.78;;;19.30;76.45
30516;BME280;17297;54.022;10.760;2023-08-01T05:14:37;99332.03;;;19.31;76.56
30516;BME280;17297;54.022;10.760;2023-08-01T05:17:03;99340.19;;;19.31;76.68
30516;BME280;17297;54.022;10.760;2023-08-01T05:19:28;99335.28;;;19.33;76.62
30516;BME280;17297;54.022;10.760;2023-08-01T05:21:54;99350.53;;;19.34;76.65
30516;BME280;17297;54.022;10.760;2023-08-01T05:24:20;99345.63;;;19.36;76.83
30516;BME280;17297;54.022;10.760;2023-08-01T05:26:47;99342.63;;;19.38;76.89
30516;BME280;17297;54.022;10.760;2023-08-01T05:29:12;99329.81;;;19.38;76.81
30516;BME280;17297;54.022;10.760;2023-08-01T05:31:38;99343.13;;;19.40;76.68
30516;BME280;17297;54.022;10.760;2023-08-01T05:34:03;99347.50;;;19.41;76.75
30516;BME280;17297;54.022;10.760;2023-08-01T05:36:28;99342.56;;;19.43;76.93
30516;BME280;17297;54.022;10.760;2023-08-01T05:38:54;99340.66;;;19.44;76.92
30516;BME280;17297;54.022;10.760;2023-08-01T05:41:19;99338.47;;;19.46;76.53
30516;BME280;17297;54.022;10.760;2023-08-01T05:43:47;99333.81;;;19.46;76.82
30516;BME280;17297;54.022;10.760;2023-08-01T05:46:14;99328.91;;;19.48;76.84
30516;BME280;17297;54.022;10.760;2023-08-01T05:48:39;99333.25;;;19.49;76.83
30516;BME280;17297;54.022;10.760;2023-08-01T05:51:05;99341.97;;;19.51;76.73
30516;BME280;17297;54.022;10.760;2023-08-01T05:53:31;99343.56;;;19.52;76.81
30516;BME280;17297;54.022;10.760;2023-08-01T05:55:56;99344.13;;;19.54;77.10
30516;BME280;17297;54.022;10.760;2023-08-01T05:58:21;99338.34;;;19.56;76.72
30516;BME280;17297;54.022;10.760;2023-08-01T06:00:47;99336.16;;;19.58;77.06
30516;BME280;17297;54.022;10.760;2023-08-01T06:03:15;99339.44;;;19.60;77.14
30516;BME280;17297;54.022;10.760;2023-08-01T06:05:41;99329.34;;;19.60;76.90
30516;BME280;17297;54.022;10.760;2023-08-01T06:08:07;99339.94;;;19.62;76.74
30516;BME280;17297;54.022;10.760;2023-08-01T06:10:33;99338.59;;;19.65;77.04
30516;BME280;17297;54.022;10.760;2023-08-01T06:13:00;99336.66;;;19.65;77.08
30516;BME280;17297;54.022;10.760;2023-08-01T06:15:25;99338.00;;;19.68;76.95
30516;BME280;17297;54.022;10.760;2023-08-01T06:17:50;99336.91;;;19.69;77.04
30516;BME280;17297;54.022;10.760;2023-08-01T06:20:15;99333.91;;;19.70;76.87
30516;BME280;17297;54.022;10.760;2023-08-01T06:22:42;99336.34;;;19.72;76.77
30516;BME280;17297;54.022;10.760;2023-08-01T06:25:08;99334.44;;;19.72;76.92
30516;BME280;17297;54.022;10.760;2023-08-01T06:27:33;99333.34;;;19.73;77.07
30516;BME280;17297;54.022;10.760;2023-08-01T06:29:59;99330.31;;;19.75;76.96
30516;BME280;17297;54.022;10.760;2023-08-01T06:32:24;99332.75;;;19.76;77.23
30516;BME280;17297;54.022;10.760;2023-08-01T06:34:49;99331.06;;;19.80;77.04
30516;BME280;17297;54.022;10.760;2023-08-01T06:37:15;99332.72;;;19.81;76.88
30516;BME280;17297;54.022;10.760;2023-08-01T06:39:40;99332.16;;;19.84;76.84
30516;BME280;17297;54.022;10.760;2023-08-01T06:42:06;99332.66;;;19.87;77.10
30516;BME280;17297;54.022;10.760;2023-08-01T06:44:31;99334.00;;;19.89;77.11
30516;BME280;17297;54.022;10.760;2023-08-01T06:46:58;99334.22;;;19.93;76.81
30516;BME280;17297;54.022;10.760;2023-08-01T06:49:23;99332.03;;;19.95;77.09
30516;BME280;17297;54.022;10.760;2023-08-01T06:51:48;99323.53;;;19.96;76.91
30516;BME280;17297;54.022;10.760;2023-08-01T06:54:14;99317.50;;;19.99;77.04
30516;BME280;17297;54.022;10.760;2023-08-01T06:56:39;99318.25;;;20.05;77.06
30516;BME280;17297;54.022;10.760;2023-08-01T06:59:04;99326.28;;;20.20;77.61
30516;BME280;17297;54.022;10.760;2023-08-01T07:01:30;99333.56;;;20.49;77.94
30516;BME280;17297;54.022;10.760;2023-08-01T07:03:55;99336.69;;;20.85;77.86
30516;BME280;17297;54.022;10.760;2023-08-01T07:06:23;99327.53;;;21.28;78.10
30516;BME280;17297;54.022;10.760;2023-08-01T07:08:49;99346.22;;;21.58;77.36
30516;BME280;17297;54.022;10.760;2023-08-01T07:11:15;99333.69;;;21.71;76.66
30516;BME280;17297;54.022;10.760;2023-08-01T07:13:40;99340.47;;;21.74;75.85
30516;BME280;17297;54.022;10.760;2023-08-01T07:16:05;99334.00;;;21.70;75.41
30516;BME280;17297;54.022;10.760;2023-08-01T07:18:31;99337.13;;;21.63;75.45
30516;BME280;17297;54.022;10.760;2023-08-01T07:21:01;99341.66;;;21.54;74.91
30516;BME280;17297;54.022;10.760;2023-08-01T07:23:26;99331.69;;;21.44;74.72
30516;BME280;17297;54.022;10.760;2023-08-01T07:25:53;99335.69;;;21.33;74.40
30516;BME280;17297;54.022;10.760;2023-08-01T07:28:18;99342.44;;;21.21;74.59
30516;BME280;17297;54.022;10.760;2023-08-01T07:30:44;99352.41;;;21.12;74.44
30516;BME280;17297;54.022;10.760;2023-08-01T07:33:09;99347.88;;;21.03;74.45
30516;BME280;17297;54.022;10.760;2023-08-01T07:35:34;99342.28;;;20.94;74.68
30516;BME280;17297;54.022;10.760;2023-08-01T07:38:00;99345.41;;;20.87;74.52
30516;BME280;17297;54.022;10.760;2023-08-01T07:40:25;99345.47;;;20.82;74.49
30516;BME280;17297;54.022;10.760;2023-08-01T07:42:51;99347.97;;;20.79;74.72
30516;BME280;17297;54.022;10.760;2023-08-01T07:45:17;99347.44;;;20.76;74.88
30516;BME280;17297;54.022;10.760;2023-08-01T07:47:43;99344.19;;;20.74;74.85
30516;BME280;17297;54.022;10.760;2023-08-01T07:50:09;99349.44;;;20.71;74.50
30516;BME280;17297;54.022;10.760;2023-08-01T07:52:34;99348.09;;;20.68;74.84
30516;BME280;17297;54.022;10.760;2023-08-01T07:55:00;99344.56;;;20.68;74.96
30516;BME280;17297;54.022;10.760;2023-08-01T07:57:25;99344.88;;;20.66;74.53
30516;BME280;17297;54.022;10.760;2023-08-01T07:59:50;99349.22;;;20.67;74.75
30516;BME280;17297;54.022;10.760;2023-08-01T08:02:16;99343.22;;;20.65;74.78
30516;BME280;17297;54.022;10.760;2023-08-01T08:04:41;99339.69;;;20.65;74.79
30516;BME280;17297;54.022;10.760;2023-08-01T08:07:06;99341.59;;;20.64;74.87
30516;BME280;17297;54.022;10.760;2023-08-01T08:09:32;99347.06;;;20.64;74.89
30516;BME280;17297;54.022;10.760;2023-08-01T08:11:57;99341.59;;;20.64;74.71
30516;BME280;17297;54.022;10.760;2023-08-01T08:14:23;99345.13;;;20.65;74.75
30516;BME280;17297;54.022;10.760;2023-08-01T08:16:48;99346.78;;;20.66;74.80
30516;BME280;17297;54.022;10.760;2023-08-01T08:19:14;99348.09;;;20.68;74.97
30516;BME280;17297;54.022;10.760;2023-08-01T08:21:39;99343.97;;;20.71;75.09
30516;BME280;17297;54.022;10.760;2023-08-01T08:24:04;99353.50;;;20.73;75.16
30516;BME280;17297;54.022;10.760;2023-08-01T08:26:30;99355.66;;;20.76;74.86
30516;BME280;17297;54.022;10.760;2023-08-01T08:28:57;99350.41;;;20.80;74.98
30516;BME280;17297;54.022;10.760;2023-08-01T08:31:23;99341.84;;;20.87;75.28
30516;BME280;17297;54.022;10.760;2023-08-01T08:33:48;99344.22;;;20.93;74.98
30516;BME280;17297;54.022;10.760;2023-08-01T08:36:13;99338.66;;;20.98;74.92
30516;BME280;17297;54.022;10.760;2023-08-01T08:38:39;99341.34;;;21.04;74.71
30516;BME280;17297;54.022;10.760;2023-08-01T08:41:10;99338.28;;;21.05;74.59
30516;BME280;17297;54.022;10.760;2023-08-01T08:43:36;99342.34;;;21.08;74.86
30516;BME280;17297;54.022;10.760;2023-08-01T08:46:03;99335.19;;;21.12;74.64
30516;BME280;17297;54.022;10.760;2023-08-01T08:48:30;99341.47;;;21.12;74.73
30516;BME280;17297;54.022;10.760;2023-08-01T08:50:57;99343.09;;;21.13;74.47
30516;BME280;17297;54.022;10.760;2023-08-01T08:53:24;99340.03;;;21.15;74.72
30516;BME280;17297;54.022;10.760;2023-08-01T08:55:50;99348.25;;;21.15;74.64
30516;BME280;17297;54.022;10.760;2023-08-01T08:58:16;99352.41;;;21.12;73.83
30516;BME280;17297;54.022;10.760;2023-08-01T09:00:42;99360.69;;;21.07;73.57
30516;BME280;17297;54.022;10.760;2023-08-01T09:03:08;99362.97;;;21.00;73.25
30516;BME280;17297;54.022;10.760;2023-08-01T09:05:40;99361.22;;;20.90;73.10
30516;BME280;17297;54.022;10.760;2023-08-01T09:08:15;99360.75;;;20.83;73.17
30516;BME280;17297;54.022;10.760;2023-08-01T09:10:41;99360.00;;;20.77;73.42
30516;BME280;17297;54.022;10.760;2023-08-01T09:13:07;99356.75;;;20.75;73.70
30516;BME280;17297;54.022;10.760;2023-08-01T09:15:34;99364.88;;;20.81;73.68
30516;BME280;17297;54.022;10.760;2023-08-01T09:17:59;99362.38;;;20.84;73.79
30516;BME280;17297;54.022;10.760;2023-08-01T09:20:27;99360.97;;;20.87;73.81
30516;BME280;17297;54.022;10.760;2023-08-01T09:22:53;99365.34;;;20.88;74.00
30516;BME280;17297;54.022;10.760;2023-08-01T09:25:18;99360.16;;;20.86;73.86
30516;BME280;17297;54.022;10.760;2023-08-01T09:27:44;99367.53;;;20.86;73.93
30516;BME280;17297;54.022;10.760;2023-08-01T09:30:13;99361.84;;;20.82;73.65
30516;BME280;17297;54.022;10.760;2023-08-01T09:32:54;99358.81;;;20.84;73.96
30516;BME280;17297;54.022;10.760;2023-08-01T09:35:19;99365.25;;;20.93;74.36
30516;BME280;17297;54.022;10.760;2023-08-01T09:37:46;99359.41;;;20.99;74.41
30516;BME280;17297;54.022;10.760;2023-08-01T09:40:13;99358.47;;;21.09;74.63
30516;BME280;17297;54.022;10.760;2023-08-01T09:42:40;99358.59;;;21.18;74.43
30516;BME280;17297;54.022;10.760;2023-08-01T09:45:11;99350.53;;;21.27;74.32
30516;BME280;17297;54.022;10.760;2023-08-01T09:47:37;99342.50;;;21.35;74.20
30516;BME280;17297;54.022;10.760;2023-08-01T09:50:03;99343.75;;;21.43;74.19
30516;BME280;17297;54.022;10.760;2023-08-01T09:52:29;99343.66;;;21.48;74.25
30516;BME280;17297;54.022;10.760;2023-08-01T09:54:54;99342.53;;;21.49;73.82
30516;BME280;17297;54.022;10.760;2023-08-01T09:57:21;99343.38;;;21.50;73.63
30516;BME280;17297;54.022;10.760;2023-08-01T09:59:47;99347.53;;;21.47;73.49
30516;BME280;17297;54.022;10.760;2023-08-01T10:02:15;99341.00;;;21.43;73.32
30516;BME280;17297;54.022;10.760;2023-08-01T10:04:42;99341.09;;;21.38;73.05
30516;BME280;17297;54.022;10.760;2023-08-01T10:07:11;99344.41;;;21.35;73.17
30516;BME280;17297;54.022;10.760;2023-08-01T10:09:40;99344.13;;;21.36;73.36
30516;BME280;17297;54.022;10.760;2023-08-01T10:12:08;99347.31;;;21.43;73.64
30516;BME280;17297;54.022;10.760;2023-08-01T10:14:35;99333.72;;;21.52;73.71
30516;BME280;17297;54.022;10.760;2023-08-01T10:17:02;99328.09;;;21.62;73.24
30516;BME280;17297;54.022;10.760;2023-08-01T10:19:31;99328.81;;;21.68;73.22
30516;BME280;17297;54.022;10.760;2023-08-01T10:21:58;99326.91;;;21.68;73.13
30516;BME280;17297;54.022;10.760;2023-08-01T10:24:25;99320.59;;;21.68;73.00
30516;BME280;17297;54.022;10.760;2023-08-01T10:26:52;99328.22;;;21.71;72.63
30516;BME280;17297;54.022;10.760;2023-08-01T10:29:17;99322.53;;;21.67;72.14
30516;BME280;17297;54.022;10.760;2023-08-01T10:31:53;99329.41;;;21.65;72.58
30516;BME280;17297;54.022;10.760;2023-08-01T10:34:19;99346.13;;;21.63;71.71
30516;BME280;17297;54.022;10.760;2023-08-01T10:36:55;99344.00;;;21.60;71.86
30516;BME280;17297;54.022;10.760;2023-08-01T10:39:24;99338.22;;;21.62;71.76
30516;BME280;17297;54.022;10.760;2023-08-01T10:42:00;99349.09;;;21.67;72.14
30516;BME280;17297;54.022;10.760;2023-08-01T10:44:26;99357.72;;;21.74;72.12
30516;BME280;17297;54.022;10.760;2023-08-01T10:46:54;99356.81;;;21.79;72.00
30516;BME280;17297;54.022;10.760;2023-08-01T10:49:32;99358.44;;;21.80;71.70
30516;BME280;17297;54.022;10.760;2023-08-01T10:51:58;99348.00;;;21.82;71.59
30516;BME280;17297;54.022;10.760;2023-08-01T10:54:24;99356.75;;;21.84;71.49
30516;BME280;17297;54.022;10.760;2023-08-01T10:56:52;99344.34;;;21.86;71.34
30516;BME280;17297;54.022;10.760;2023-08-01T10:59:18;99347.81;;;21.92;71.24
30516;BME280;17297;54.022;10.760;2023-08-01T11:01:48;99343.59;;;22.00;71.64
30516;BME280;17297;54.022;10.760;2023-08-01T11:04:18;99359.28;;;22.08;71.47
30516;BME280;17297;54.022;10.760;2023-08-01T11:06:50;99357.28;;;22.13;70.93
30516;BME280;17297;54.022;10.760;2023-08-01T11:09:20;99355.28;;;22.19;70.97
30516;BME280;17297;54.022;10.760;2023-08-01T11:11:54;99340.38;;;22.25;70.55
30516;BME280;17297;54.022;10.760;2023-08-01T11:14:21;99343.84;;;22.31;70.53
30516;BME280;17297;54.022;10.760;2023-08-01T11:16:48;99323.72;;;22.35;70.05
30516;BME280;17297;54.022;10.760;2023-08-01T11:19:22;99338.75;;;22.38;70.04
30516;BME280;17297;54.022;10.760;2023-08-01T11:21:48;99344.13;;;22.43;69.93
30516;BME280;17297;54.022;10.760;2023-08-01T11:24:13;99356.91;;;22.48;69.77
30516;BME280;17297;54.022;10.760;2023-08-01T11:26:43;99374.47;;;22.47;69.42
30516;BME280;17297;54.022;10.760;2023-08-01T11:29:10;99378.09;;;22.42;69.04
30516;BME280;17297;54.022;10.760;2023-08-01T11:31:36;99380.53;;;22.30;68.46
30516;BME280;17297;54.022;10.760;2023-08-01T11:34:02;99378.06;;;22.14;68.10
30516;BME280;17297;54.022;10.760;2023-08-01T11:36:28;99395.59;;;22.00;67.87
30516;BME280;17297;54.022;10.760;2023-08-01T11:38:58;99388.25;;;21.81;67.71
30516;BME280;17297;54.022;10.760;2023-08-01T11:41:25;99383.84;;;21.66;67.57
30516;BME280;17297;54.022;10.760;2023-08-01T11:43:52;99385.44;;;21.54;67.93
30516;BME280;17297;54.022;10.760;2023-08-01T11:46:18;99384.88;;;21.38;68.36
30516;BME280;17297;54.022;10.760;2023-08-01T11:48:47;99398.97;;;21.26;68.66
30516;BME280;17297;54.022;10.760;2023-08-01T11:51:13;99391.19;;;21.14;68.73
30516;BME280;17297;54.022;10.760;2023-08-01T11:53:38;99405.81;;;21.05;68.79
30516;BME280;17297;54.022;10.760;2023-08-01T11:56:04;99414.97;;;20.95;68.65
30516;BME280;17297;54.022;10.760;2023-08-01T11:58:40;99416.75;;;20.86;68.91
30516;BME280;17297;54.022;10.760;2023-08-01T12:01:10;99417.38;;;20.77;69.21
30516;BME280;17297;54.022;10.760;2023-08-01T12:06:08;99412.03;;;20.67;69.30
30516;BME280;17297;54.022;10.760;2023-08-01T12:08:34;99421.41;;;20.61;69.65
30516;BME280;17297;54.022;10.760;2023-08-01T12:11:00;99427.47;;;20.58;69.82
30516;BME280;17297;54.022;10.760;2023-08-01T12:13:26;99423.69;;;20.54;70.39
30516;BME280;17297;54.022;10.760;2023-08-01T12:15:53;99423.16;;;20.52;70.43
30516;BME280;17297;54.022;10.760;2023-08-01T12:18:26;99423.69;;;20.49;70.47
30516;BME280;17297;54.022;10.760;2023-08-01T12:20:52;99436.31;;;20.45;70.46
30516;BME280;17297;54.022;10.760;2023-08-01T12:23:17;99433.06;;;20.43;71.01
30516;BME280;17297;54.022;10.760;2023-08-01T12:25:43;99433.63;;;20.40;70.83
30516;BME280;17297;54.022;10.760;2023-08-01T12:28:09;99427.94;;;20.36;70.82
30516;BME280;17297;54.022;10.760;2023-08-01T12:30:34;99418.41;;;20.34;70.95
30516;BME280;17297;54.022;10.760;2023-08-01T12:33:00;99430.44;;;20.33;70.91
30516;BME280;17297;54.022;10.760;2023-08-01T12:35:28;99429.91;;;20.30;70.74
30516;BME280;17297;54.022;10.760;2023-08-01T12:37:53;99435.38;;;20.30;70.94
30516;BME280;17297;54.022;10.760;2023-08-01T12:40:19;99430.22;;;20.29;71.04
30516;BME280;17297;54.022;10.760;2023-08-01T12:42:46;99448.22;;;20.30;71.08
30516;BME280;17297;54.022;10.760;2023-08-01T12:45:11;99443.56;;;20.30;71.06
30516;BME280;17297;54.022;10.760;2023-08-01T12:47:37;99447.06;;;20.36;71.58